• pl
  • eng

Awiacja
Komunikaty METAR z lotnisk wojskowych. 10:01 25.03.2017

METAR EPBC 250930Z NIL=

METAR EPCE 250930Z 28011KT 9999 OVC011 04/01
Q1023 RMK 036 086 8/8 =

METAR EPDA 250930Z 28012KT 240V310 9999 OVC011 05/03
Q1025 RMK 046 090 8/8 =

METAR EPDE 250930Z 26008KT CAVOK 08/M01 Q1024 RMK 077 054 3/3=

METAR EPIR 250930Z NIL=

METAR EPKS 250930Z 27014KT CAVOK 08/M01 Q1027 RMK 083 050 7/7 =

METAR EPLK 250930Z NIL=

METAR EPLY 250930Z NIL=

METAR EPMB 250930Z 28012KT 9999 OVC025 06/00 Q1023 RMK 057 068 8/8=

METAR EPMI 250930Z NIL=

METAR EPMM 250930Z NIL=

METAR EPNA 250930Z NIL=

METAR EPOK 250930Z 28014KT 9999 OVC017 05/02
Q1022 RMK 052 079 8/8 =

METAR EPPR 250930Z NIL=

METAR EPPW 250930Z NIL=

METAR EPSN 250930Z NIL=

METAR EPTM 250930Z NIL=
Awiacja.imgw.pl jest pogodowym serwisem informacyjnym
Instytutu Meteorologii i Gospodarki Wodnej Państwowego Instytutu Badawczego.
Copyright IMGW PIB 2009-2011© Wszelkie prawa zastrzeżone.